Enterprise, Kansas
Current Conditions -  °F | °C
As of 10:14 AM on Thursday 18 Dec 2014 (Local Time) from KFRI Reporting Station
Haze Haze  
Wind Chill: 22°   Ceiling: 1300
Heat Index: 28°   Visibility: 6mi
Dew Point: 28°   Wind: 6mph
Humidity: 100%   Direction: 50°NE
Pressure: 30.24"   Gusts: NA
Location:  38.9°N, 97.12°W
Report Text: KFRI 181614Z AUTO 05005KT 6SM BR OVC013 M02/M02 A3024 RMK AO2 UPB1606E1614
Loading
Personal Weather Stations






























Interactive Weather Map New forecast layout! Learn more

10-Day Weather Forecast

Advertisements
Track Severe Weather on mobile